sensor_id;sensor_type;location;lat;lon;timestamp;P1;durP1;ratioP1;P2;durP2;ratioP2
10473;SDS011;5284;50.446;7.904;2023-04-03T00:03:26;9.27;;;2.22;;
10473;SDS011;5284;50.446;7.904;2023-04-03T00:08:29;4.53;;;2.40;;
10473;SDS011;5284;50.446;7.904;2023-04-03T00:13:33;6.05;;;1.58;;
10473;SDS011;5284;50.446;7.904;2023-04-03T00:18:38;4.25;;;1.75;;
10473;SDS011;5284;50.446;7.904;2023-04-03T00:23:41;5.97;;;1.73;;
10473;SDS011;5284;50.446;7.904;2023-04-03T00:28:44;5.15;;;1.60;;
10473;SDS011;5284;50.446;7.904;2023-04-03T00:33:48;7.88;;;2.00;;
10473;SDS011;5284;50.446;7.904;2023-04-03T00:38:51;10.98;;;1.58;;
10473;SDS011;5284;50.446;7.904;2023-04-03T00:43:54;7.30;;;1.80;;
10473;SDS011;5284;50.446;7.904;2023-04-03T00:48:58;3.13;;;1.20;;
10473;SDS011;5284;50.446;7.904;2023-04-03T00:54:02;6.80;;;2.60;;
10473;SDS011;5284;50.446;7.904;2023-04-03T00:59:10;6.35;;;2.55;;
10473;SDS011;5284;50.446;7.904;2023-04-03T01:04:27;4.50;;;1.35;;
10473;SDS011;5284;50.446;7.904;2023-04-03T01:09:31;6.53;;;1.50;;
10473;SDS011;5284;50.446;7.904;2023-04-03T01:14:35;4.10;;;1.20;;
10473;SDS011;5284;50.446;7.904;2023-04-03T01:19:39;6.65;;;1.58;;
10473;SDS011;5284;50.446;7.904;2023-04-03T01:24:50;7.25;;;1.40;;
10473;SDS011;5284;50.446;7.904;2023-04-03T01:29:54;4.97;;;1.45;;
10473;SDS011;5284;50.446;7.904;2023-04-03T01:34:58;9.20;;;1.98;;
10473;SDS011;5284;50.446;7.904;2023-04-03T01:40:02;8.68;;;1.70;;
10473;SDS011;5284;50.446;7.904;2023-04-03T01:45:05;7.47;;;1.48;;
10473;SDS011;5284;50.446;7.904;2023-04-03T01:50:10;3.40;;;1.75;;
10473;SDS011;5284;50.446;7.904;2023-04-03T01:55:13;5.78;;;1.67;;
10473;SDS011;5284;50.446;7.904;2023-04-03T02:00:17;5.47;;;1.67;;
10473;SDS011;5284;50.446;7.904;2023-04-03T02:05:21;3.30;;;1.40;;
10473;SDS011;5284;50.446;7.904;2023-04-03T02:10:24;4.07;;;1.33;;
10473;SDS011;5284;50.446;7.904;2023-04-03T02:15:27;3.75;;;1.45;;
10473;SDS011;5284;50.446;7.904;2023-04-03T02:20:31;7.35;;;2.00;;
10473;SDS011;5284;50.446;7.904;2023-04-03T02:25:34;6.45;;;1.83;;
10473;SDS011;5284;50.446;7.904;2023-04-03T02:30:39;2.95;;;1.05;;
10473;SDS011;5284;50.446;7.904;2023-04-03T02:35:43;7.78;;;1.35;;
10473;SDS011;5284;50.446;7.904;2023-04-03T02:40:59;6.80;;;1.50;;
10473;SDS011;5284;50.446;7.904;2023-04-03T02:46:02;3.30;;;1.20;;
10473;SDS011;5284;50.446;7.904;2023-04-03T02:51:07;12.57;;;1.67;;
10473;SDS011;5284;50.446;7.904;2023-04-03T02:56:10;3.63;;;1.40;;
10473;SDS011;5284;50.446;7.904;2023-04-03T03:01:13;5.47;;;1.27;;
10473;SDS011;5284;50.446;7.904;2023-04-03T03:06:18;4.28;;;1.33;;
10473;SDS011;5284;50.446;7.904;2023-04-03T03:11:21;6.43;;;1.92;;
10473;SDS011;5284;50.446;7.904;2023-04-03T03:16:23;6.30;;;1.25;;
10473;SDS011;5284;50.446;7.904;2023-04-03T03:21:28;11.15;;;1.90;;
10473;SDS011;5284;50.446;7.904;2023-04-03T03:26:31;5.60;;;1.70;;
10473;SDS011;5284;50.446;7.904;2023-04-03T03:31:36;7.28;;;1.48;;
10473;SDS011;5284;50.446;7.904;2023-04-03T03:36:40;3.58;;;1.10;;
10473;SDS011;5284;50.446;7.904;2023-04-03T03:41:43;1.17;;;0.80;;
10473;SDS011;5284;50.446;7.904;2023-04-03T03:46:46;5.38;;;2.03;;
10473;SDS011;5284;50.446;7.904;2023-04-03T03:51:50;8.95;;;1.35;;
10473;SDS011;5284;50.446;7.904;2023-04-03T03:56:55;2.38;;;0.93;;
10473;SDS011;5284;50.446;7.904;2023-04-03T04:01:59;4.82;;;1.70;;
10473;SDS011;5284;50.446;7.904;2023-04-03T04:07:04;6.03;;;1.45;;
10473;SDS011;5284;50.446;7.904;2023-04-03T04:12:08;5.40;;;1.70;;
10473;SDS011;5284;50.446;7.904;2023-04-03T04:17:12;6.93;;;1.80;;
10473;SDS011;5284;50.446;7.904;2023-04-03T04:22:16;4.93;;;2.25;;
10473;SDS011;5284;50.446;7.904;2023-04-03T04:27:19;12.27;;;3.10;;
10473;SDS011;5284;50.446;7.904;2023-04-03T04:32:22;12.77;;;3.50;;
10473;SDS011;5284;50.446;7.904;2023-04-03T04:37:27;5.50;;;2.28;;
10473;SDS011;5284;50.446;7.904;2023-04-03T04:42:31;14.85;;;3.10;;
10473;SDS011;5284;50.446;7.904;2023-04-03T04:47:34;7.82;;;2.08;;
10473;SDS011;5284;50.446;7.904;2023-04-03T04:52:40;11.00;;;2.50;;
10473;SDS011;5284;50.446;7.904;2023-04-03T04:57:43;5.32;;;1.58;;
10473;SDS011;5284;50.446;7.904;2023-04-03T05:02:47;5.32;;;1.77;;
10473;SDS011;5284;50.446;7.904;2023-04-03T05:07:54;8.07;;;1.83;;
10473;SDS011;5284;50.446;7.904;2023-04-03T05:12:57;12.48;;;2.03;;
10473;SDS011;5284;50.446;7.904;2023-04-03T05:18:01;5.85;;;2.08;;
10473;SDS011;5284;50.446;7.904;2023-04-03T05:23:05;19.05;;;1.90;;
10473;SDS011;5284;50.446;7.904;2023-04-03T05:28:09;6.00;;;1.90;;
10473;SDS011;5284;50.446;7.904;2023-04-03T05:33:12;12.32;;;2.40;;
10473;SDS011;5284;50.446;7.904;2023-04-03T05:38:24;9.35;;;2.45;;
10473;SDS011;5284;50.446;7.904;2023-04-03T05:43:28;5.43;;;1.80;;
10473;SDS011;5284;50.446;7.904;2023-04-03T05:48:31;4.85;;;1.70;;
10473;SDS011;5284;50.446;7.904;2023-04-03T05:53:36;12.10;;;3.28;;
10473;SDS011;5284;50.446;7.904;2023-04-03T05:58:40;7.97;;;2.08;;
10473;SDS011;5284;50.446;7.904;2023-04-03T06:03:43;5.65;;;2.00;;
10473;SDS011;5284;50.446;7.904;2023-04-03T06:08:48;10.60;;;4.00;;
10473;SDS011;5284;50.446;7.904;2023-04-03T06:13:51;9.80;;;2.17;;
10473;SDS011;5284;50.446;7.904;2023-04-03T06:18:55;11.63;;;1.55;;
10473;SDS011;5284;50.446;7.904;2023-04-03T06:24:00;4.97;;;1.83;;
10473;SDS011;5284;50.446;7.904;2023-04-03T06:29:03;10.82;;;1.95;;
10473;SDS011;5284;50.446;7.904;2023-04-03T06:34:06;6.22;;;2.03;;
10473;SDS011;5284;50.446;7.904;2023-04-03T06:39:12;5.57;;;2.10;;
10473;SDS011;5284;50.446;7.904;2023-04-03T06:44:17;9.95;;;1.70;;
10473;SDS011;5284;50.446;7.904;2023-04-03T06:49:21;15.75;;;2.20;;
10473;SDS011;5284;50.446;7.904;2023-04-03T06:54:25;13.23;;;2.55;;
10473;SDS011;5284;50.446;7.904;2023-04-03T06:59:30;8.82;;;2.50;;
10473;SDS011;5284;50.446;7.904;2023-04-03T07:04:33;10.77;;;2.70;;
10473;SDS011;5284;50.446;7.904;2023-04-03T07:09:38;10.85;;;3.78;;
10473;SDS011;5284;50.446;7.904;2023-04-03T07:14:43;7.60;;;2.85;;
10473;SDS011;5284;50.446;7.904;2023-04-03T07:19:48;11.82;;;2.22;;
10473;SDS011;5284;50.446;7.904;2023-04-03T07:24:54;6.32;;;2.85;;
10473;SDS011;5284;50.446;7.904;2023-04-03T07:29:57;12.43;;;2.92;;
10473;SDS011;5284;50.446;7.904;2023-04-03T07:35:01;10.45;;;3.05;;
10473;SDS011;5284;50.446;7.904;2023-04-03T07:40:07;10.82;;;3.75;;
10473;SDS011;5284;50.446;7.904;2023-04-03T07:45:11;16.15;;;3.33;;
10473;SDS011;5284;50.446;7.904;2023-04-03T07:50:14;5.90;;;1.75;;
10473;SDS011;5284;50.446;7.904;2023-04-03T07:55:21;9.30;;;2.63;;
10473;SDS011;5284;50.446;7.904;2023-04-03T08:00:24;3.60;;;2.15;;
10473;SDS011;5284;50.446;7.904;2023-04-03T08:05:27;18.08;;;4.82;;
10473;SDS011;5284;50.446;7.904;2023-04-03T08:10:31;11.32;;;4.13;;
10473;SDS011;5284;50.446;7.904;2023-04-03T08:15:34;11.25;;;3.45;;
10473;SDS011;5284;50.446;7.904;2023-04-03T08:20:38;9.63;;;2.97;;
10473;SDS011;5284;50.446;7.904;2023-04-03T08:25:44;5.60;;;2.40;;
10473;SDS011;5284;50.446;7.904;2023-04-03T08:30:48;12.73;;;2.22;;
10473;SDS011;5284;50.446;7.904;2023-04-03T08:35:52;8.43;;;2.15;;
10473;SDS011;5284;50.446;7.904;2023-04-03T08:41:04;9.57;;;2.97;;
10473;SDS011;5284;50.446;7.904;2023-04-03T08:46:16;11.60;;;1.88;;
10473;SDS011;5284;50.446;7.904;2023-04-03T08:51:24;7.32;;;2.03;;
10473;SDS011;5284;50.446;7.904;2023-04-03T08:56:30;8.35;;;2.65;;
10473;SDS011;5284;50.446;7.904;2023-04-03T09:01:37;9.27;;;2.30;;
10473;SDS011;5284;50.446;7.904;2023-04-03T09:06:42;5.30;;;2.05;;
10473;SDS011;5284;50.446;7.904;2023-04-03T09:11:52;12.02;;;2.42;;
10473;SDS011;5284;50.446;7.904;2023-04-03T09:17:03;10.15;;;2.20;;
10473;SDS011;5284;50.446;7.904;2023-04-03T09:22:13;16.45;;;2.75;;
10473;SDS011;5284;50.446;7.904;2023-04-03T09:27:21;7.93;;;2.43;;
10473;SDS011;5284;50.446;7.904;2023-04-03T09:32:25;9.95;;;2.60;;
10473;SDS011;5284;50.446;7.904;2023-04-03T09:37:36;6.10;;;2.45;;
10473;SDS011;5284;50.446;7.904;2023-04-03T09:42:42;10.23;;;2.75;;
10473;SDS011;5284;50.446;7.904;2023-04-03T09:48:03;7.15;;;2.03;;
10473;SDS011;5284;50.446;7.904;2023-04-03T09:53:24;6.82;;;2.25;;
10473;SDS011;5284;50.446;7.904;2023-04-03T09:58:33;12.10;;;2.28;;
10473;SDS011;5284;50.446;7.904;2023-04-03T10:04:02;9.15;;;2.60;;
10473;SDS011;5284;50.446;7.904;2023-04-03T10:09:14;7.05;;;2.42;;
10473;SDS011;5284;50.446;7.904;2023-04-03T10:14:22;9.27;;;2.38;;
10473;SDS011;5284;50.446;7.904;2023-04-03T10:19:30;6.57;;;2.28;;
10473;SDS011;5284;50.446;7.904;2023-04-03T10:24:41;8.98;;;2.13;;
10473;SDS011;5284;50.446;7.904;2023-04-03T10:29:53;7.18;;;2.40;;
10473;SDS011;5284;50.446;7.904;2023-04-03T10:35:05;5.07;;;1.88;;
10473;SDS011;5284;50.446;7.904;2023-04-03T10:40:20;7.95;;;2.00;;
10473;SDS011;5284;50.446;7.904;2023-04-03T10:45:35;4.00;;;1.33;;
10473;SDS011;5284;50.446;7.904;2023-04-03T10:50:52;4.57;;;1.92;;
10473;SDS011;5284;50.446;7.904;2023-04-03T10:56:06;9.15;;;2.60;;
10473;SDS011;5284;50.446;7.904;2023-04-03T11:01:18;8.57;;;2.13;;
10473;SDS011;5284;50.446;7.904;2023-04-03T11:06:26;6.90;;;2.70;;
10473;SDS011;5284;50.446;7.904;2023-04-03T11:11:37;10.00;;;2.42;;
10473;SDS011;5284;50.446;7.904;2023-04-03T11:16:45;3.80;;;1.50;;
10473;SDS011;5284;50.446;7.904;2023-04-03T11:21:56;5.90;;;1.48;;
10473;SDS011;5284;50.446;7.904;2023-04-03T11:27:05;3.42;;;1.38;;
10473;SDS011;5284;50.446;7.904;2023-04-03T11:32:16;8.67;;;1.97;;
10473;SDS011;5284;50.446;7.904;2023-04-03T11:37:33;7.15;;;2.03;;
10473;SDS011;5284;50.446;7.904;2023-04-03T11:42:39;5.00;;;2.43;;
10473;SDS011;5284;50.446;7.904;2023-04-03T11:47:45;8.05;;;2.03;;
10473;SDS011;5284;50.446;7.904;2023-04-03T11:58:30;5.25;;;2.10;;
10473;SDS011;5284;50.446;7.904;2023-04-03T12:26:05;5.07;;;2.00;;
10473;SDS011;5284;50.446;7.904;2023-04-03T12:31:23;5.32;;;2.28;;
10473;SDS011;5284;50.446;7.904;2023-04-03T12:36:39;5.80;;;2.00;;
10473;SDS011;5284;50.446;7.904;2023-04-03T12:41:51;6.65;;;1.90;;
10473;SDS011;5284;50.446;7.904;2023-04-03T12:47:00;4.57;;;2.00;;
10473;SDS011;5284;50.446;7.904;2023-04-03T12:52:19;4.63;;;1.58;;
10473;SDS011;5284;50.446;7.904;2023-04-03T12:57:30;4.15;;;2.20;;
10473;SDS011;5284;50.446;7.904;2023-04-03T13:02:38;2.65;;;1.55;;
10473;SDS011;5284;50.446;7.904;2023-04-03T13:07:45;7.37;;;1.73;;
10473;SDS011;5284;50.446;7.904;2023-04-03T13:12:53;3.65;;;1.60;;
10473;SDS011;5284;50.446;7.904;2023-04-03T13:18:00;4.80;;;1.35;;
10473;SDS011;5284;50.446;7.904;2023-04-03T13:23:05;2.85;;;1.40;;
10473;SDS011;5284;50.446;7.904;2023-04-03T13:33:19;6.22;;;1.60;;
10473;SDS011;5284;50.446;7.904;2023-04-03T13:38:26;4.53;;;1.98;;
10473;SDS011;5284;50.446;7.904;2023-04-03T13:43:34;2.83;;;1.58;;
10473;SDS011;5284;50.446;7.904;2023-04-03T13:48:43;7.45;;;2.13;;
10473;SDS011;5284;50.446;7.904;2023-04-03T13:53:50;27.02;;;7.50;;
10473;SDS011;5284;50.446;7.904;2023-04-03T13:59:04;2.10;;;1.35;;
10473;SDS011;5284;50.446;7.904;2023-04-03T14:04:11;6.38;;;1.90;;
10473;SDS011;5284;50.446;7.904;2023-04-03T14:09:19;7.78;;;3.15;;
10473;SDS011;5284;50.446;7.904;2023-04-03T14:14:26;10.73;;;3.85;;
10473;SDS011;5284;50.446;7.904;2023-04-03T14:19:33;8.98;;;3.28;;
10473;SDS011;5284;50.446;7.904;2023-04-03T14:24:39;13.05;;;3.42;;
10473;SDS011;5284;50.446;7.904;2023-04-03T14:29:42;7.82;;;3.08;;
10473;SDS011;5284;50.446;7.904;2023-04-03T14:34:45;16.98;;;5.30;;
10473;SDS011;5284;50.446;7.904;2023-04-03T14:39:50;12.18;;;3.05;;
10473;SDS011;5284;50.446;7.904;2023-04-03T14:44:55;5.13;;;2.20;;
10473;SDS011;5284;50.446;7.904;2023-04-03T14:49:58;6.75;;;1.70;;
10473;SDS011;5284;50.446;7.904;2023-04-03T14:55:04;14.55;;;5.43;;
10473;SDS011;5284;50.446;7.904;2023-04-03T15:00:12;9.35;;;2.63;;
10473;SDS011;5284;50.446;7.904;2023-04-03T15:10:27;9.82;;;2.10;;
10473;SDS011;5284;50.446;7.904;2023-04-03T15:15:32;7.30;;;2.20;;
10473;SDS011;5284;50.446;7.904;2023-04-03T15:20:37;2.80;;;1.65;;
10473;SDS011;5284;50.446;7.904;2023-04-03T15:25:41;5.60;;;1.25;;
10473;SDS011;5284;50.446;7.904;2023-04-03T15:30:45;8.68;;;2.00;;
10473;SDS011;5284;50.446;7.904;2023-04-03T15:35:48;5.55;;;2.35;;
10473;SDS011;5284;50.446;7.904;2023-04-03T15:40:52;4.30;;;1.85;;
10473;SDS011;5284;50.446;7.904;2023-04-03T15:45:56;10.90;;;3.10;;
10473;SDS011;5284;50.446;7.904;2023-04-03T15:51:00;6.45;;;2.20;;
10473;SDS011;5284;50.446;7.904;2023-04-03T15:56:05;7.82;;;1.70;;
10473;SDS011;5284;50.446;7.904;2023-04-03T16:01:09;8.07;;;2.92;;
10473;SDS011;5284;50.446;7.904;2023-04-03T16:06:14;5.45;;;1.73;;
10473;SDS011;5284;50.446;7.904;2023-04-03T16:11:20;6.15;;;2.10;;
10473;SDS011;5284;50.446;7.904;2023-04-03T16:16:23;3.22;;;1.77;;
10473;SDS011;5284;50.446;7.904;2023-04-03T16:21:27;4.63;;;2.22;;
10473;SDS011;5284;50.446;7.904;2023-04-03T16:26:31;11.70;;;1.80;;
10473;SDS011;5284;50.446;7.904;2023-04-03T16:31:34;5.97;;;2.28;;
10473;SDS011;5284;50.446;7.904;2023-04-03T16:36:37;7.22;;;2.63;;
10473;SDS011;5284;50.446;7.904;2023-04-03T16:41:42;7.03;;;3.45;;
10473;SDS011;5284;50.446;7.904;2023-04-03T16:46:44;6.90;;;2.75;;
10473;SDS011;5284;50.446;7.904;2023-04-03T16:51:48;5.50;;;2.42;;
10473;SDS011;5284;50.446;7.904;2023-04-03T16:56:53;2.97;;;1.67;;
10473;SDS011;5284;50.446;7.904;2023-04-03T17:01:56;3.38;;;1.92;;
10473;SDS011;5284;50.446;7.904;2023-04-03T17:06:59;7.13;;;2.47;;
10473;SDS011;5284;50.446;7.904;2023-04-03T17:12:08;5.40;;;2.10;;
10473;SDS011;5284;50.446;7.904;2023-04-03T17:17:13;4.63;;;1.57;;
10473;SDS011;5284;50.446;7.904;2023-04-03T17:22:18;2.72;;;1.30;;
10473;SDS011;5284;50.446;7.904;2023-04-03T17:27:22;3.63;;;1.52;;
10473;SDS011;5284;50.446;7.904;2023-04-03T17:32:26;6.00;;;1.80;;
10473;SDS011;5284;50.446;7.904;2023-04-03T17:37:29;13.57;;;3.38;;
10473;SDS011;5284;50.446;7.904;2023-04-03T17:42:33;12.95;;;4.85;;
10473;SDS011;5284;50.446;7.904;2023-04-03T17:47:37;14.60;;;4.47;;
10473;SDS011;5284;50.446;7.904;2023-04-03T17:52:41;29.83;;;5.50;;
10473;SDS011;5284;50.446;7.904;2023-04-03T17:57:48;24.90;;;5.47;;
10473;SDS011;5284;50.446;7.904;2023-04-03T18:02:51;27.92;;;8.23;;
10473;SDS011;5284;50.446;7.904;2023-04-03T18:07:55;51.67;;;10.57;;
10473;SDS011;5284;50.446;7.904;2023-04-03T18:13:00;35.10;;;8.85;;
10473;SDS011;5284;50.446;7.904;2023-04-03T18:18:03;40.60;;;10.95;;
10473;SDS011;5284;50.446;7.904;2023-04-03T18:23:08;9.77;;;3.10;;
10473;SDS011;5284;50.446;7.904;2023-04-03T18:28:13;5.93;;;2.22;;
10473;SDS011;5284;50.446;7.904;2023-04-03T18:33:17;6.85;;;2.75;;
10473;SDS011;5284;50.446;7.904;2023-04-03T18:38:20;5.72;;;2.15;;
10473;SDS011;5284;50.446;7.904;2023-04-03T18:43:25;9.60;;;2.40;;
10473;SDS011;5284;50.446;7.904;2023-04-03T18:48:28;9.30;;;3.15;;
10473;SDS011;5284;50.446;7.904;2023-04-03T18:53:31;16.80;;;4.38;;
10473;SDS011;5284;50.446;7.904;2023-04-03T18:58:36;13.40;;;4.07;;
10473;SDS011;5284;50.446;7.904;2023-04-03T19:03:39;17.10;;;5.03;;
10473;SDS011;5284;50.446;7.904;2023-04-03T19:08:44;21.02;;;6.78;;
10473;SDS011;5284;50.446;7.904;2023-04-03T19:13:49;22.63;;;5.28;;
10473;SDS011;5284;50.446;7.904;2023-04-03T19:19:12;10.10;;;3.47;;
10473;SDS011;5284;50.446;7.904;2023-04-03T19:24:15;5.60;;;2.55;;
10473;SDS011;5284;50.446;7.904;2023-04-03T19:29:21;6.72;;;2.75;;
10473;SDS011;5284;50.446;7.904;2023-04-03T19:34:24;9.63;;;2.72;;
10473;SDS011;5284;50.446;7.904;2023-04-03T19:39:29;10.73;;;2.80;;
10473;SDS011;5284;50.446;7.904;2023-04-03T19:44:39;18.52;;;4.72;;
10473;SDS011;5284;50.446;7.904;2023-04-03T19:49:42;10.38;;;3.22;;
10473;SDS011;5284;50.446;7.904;2023-04-03T19:54:45;15.70;;;3.42;;
10473;SDS011;5284;50.446;7.904;2023-04-03T19:59:49;6.20;;;2.60;;
10473;SDS011;5284;50.446;7.904;2023-04-03T20:04:52;11.00;;;2.58;;
10473;SDS011;5284;50.446;7.904;2023-04-03T20:09:56;11.82;;;2.85;;
10473;SDS011;5284;50.446;7.904;2023-04-03T20:15:00;8.75;;;2.85;;
10473;SDS011;5284;50.446;7.904;2023-04-03T20:20:04;14.98;;;2.58;;
10473;SDS011;5284;50.446;7.904;2023-04-03T20:25:09;11.60;;;1.92;;
10473;SDS011;5284;50.446;7.904;2023-04-03T20:30:25;13.88;;;2.58;;
10473;SDS011;5284;50.446;7.904;2023-04-03T20:35:29;8.88;;;2.33;;
10473;SDS011;5284;50.446;7.904;2023-04-03T20:40:33;15.07;;;4.43;;
10473;SDS011;5284;50.446;7.904;2023-04-03T20:45:37;11.88;;;3.33;;
10473;SDS011;5284;50.446;7.904;2023-04-03T20:50:40;10.18;;;2.40;;
10473;SDS011;5284;50.446;7.904;2023-04-03T20:55:52;9.73;;;2.92;;
10473;SDS011;5284;50.446;7.904;2023-04-03T21:00:58;8.63;;;2.33;;
10473;SDS011;5284;50.446;7.904;2023-04-03T21:22:26;3.22;;;1.73;;
10473;SDS011;5284;50.446;7.904;2023-04-03T21:27:29;6.18;;;1.90;;
10473;SDS011;5284;50.446;7.904;2023-04-03T21:32:33;5.32;;;2.17;;
10473;SDS011;5284;50.446;7.904;2023-04-03T21:37:36;5.30;;;2.20;;
10473;SDS011;5284;50.446;7.904;2023-04-03T21:42:39;11.77;;;2.40;;
10473;SDS011;5284;50.446;7.904;2023-04-03T21:47:42;8.23;;;2.13;;
10473;SDS011;5284;50.446;7.904;2023-04-03T21:52:46;9.68;;;2.25;;
10473;SDS011;5284;50.446;7.904;2023-04-03T21:57:51;9.05;;;2.67;;
10473;SDS011;5284;50.446;7.904;2023-04-03T22:02:54;7.07;;;2.30;;
10473;SDS011;5284;50.446;7.904;2023-04-03T22:08:12;12.70;;;2.67;;
10473;SDS011;5284;50.446;7.904;2023-04-03T22:13:14;12.68;;;2.70;;
10473;SDS011;5284;50.446;7.904;2023-04-03T22:18:17;14.95;;;2.90;;
10473;SDS011;5284;50.446;7.904;2023-04-03T22:23:22;10.70;;;3.70;;
10473;SDS011;5284;50.446;7.904;2023-04-03T22:28:26;13.57;;;3.67;;
10473;SDS011;5284;50.446;7.904;2023-04-03T22:33:29;11.80;;;2.30;;
10473;SDS011;5284;50.446;7.904;2023-04-03T22:38:34;6.10;;;3.00;;
10473;SDS011;5284;50.446;7.904;2023-04-03T22:43:37;4.28;;;2.03;;
10473;SDS011;5284;50.446;7.904;2023-04-03T22:48:41;9.13;;;2.35;;
10473;SDS011;5284;50.446;7.904;2023-04-03T22:53:46;8.73;;;1.88;;
10473;SDS011;5284;50.446;7.904;2023-04-03T22:58:49;13.48;;;3.03;;
10473;SDS011;5284;50.446;7.904;2023-04-03T23:03:52;5.25;;;1.85;;
10473;SDS011;5284;50.446;7.904;2023-04-03T23:08:57;5.35;;;2.20;;
10473;SDS011;5284;50.446;7.904;2023-04-03T23:14:00;6.63;;;2.25;;
10473;SDS011;5284;50.446;7.904;2023-04-03T23:19:03;4.05;;;2.10;;
10473;SDS011;5284;50.446;7.904;2023-04-03T23:24:09;10.45;;;2.17;;
10473;SDS011;5284;50.446;7.904;2023-04-03T23:29:11;11.95;;;2.65;;
10473;SDS011;5284;50.446;7.904;2023-04-03T23:34:14;7.70;;;3.08;;
10473;SDS011;5284;50.446;7.904;2023-04-03T23:39:18;5.53;;;1.83;;
10473;SDS011;5284;50.446;7.904;2023-04-03T23:44:23;6.38;;;2.30;;
10473;SDS011;5284;50.446;7.904;2023-04-03T23:49:25;7.78;;;2.53;;
10473;SDS011;5284;50.446;7.904;2023-04-03T23:54:30;6.07;;;2.88;;
10473;SDS011;5284;50.446;7.904;2023-04-03T23:59:33;15.07;;;3.35;;
